sensor_id;sensor_type;location;lat;lon;timestamp;temperature;humidity
47540;DHT22;33280;52.152;21.052;2022-07-23T00:00:31;24.00;96.20
47540;DHT22;33280;52.152;21.052;2022-07-23T00:03:05;24.00;96.50
47540;DHT22;33280;52.152;21.052;2022-07-23T00:05:32;23.90;96.60
47540;DHT22;33280;52.152;21.052;2022-07-23T00:08:01;24.00;96.60
47540;DHT22;33280;52.152;21.052;2022-07-23T00:10:28;23.90;96.90
47540;DHT22;33280;52.152;21.052;2022-07-23T00:12:55;23.90;97.30
47540;DHT22;33280;52.152;21.052;2022-07-23T00:15:22;23.80;97.30
47540;DHT22;33280;52.152;21.052;2022-07-23T00:17:49;23.80;97.60
47540;DHT22;33280;52.152;21.052;2022-07-23T00:20:17;23.70;97.90
47540;DHT22;33280;52.152;21.052;2022-07-23T00:22:48;23.70;98.00
47540;DHT22;33280;52.152;21.052;2022-07-23T00:25:15;23.70;98.30
47540;DHT22;33280;52.152;21.052;2022-07-23T00:27:59;23.60;98.50
47540;DHT22;33280;52.152;21.052;2022-07-23T00:30:26;23.60;99.00
47540;DHT22;33280;52.152;21.052;2022-07-23T00:33:01;23.60;99.10
47540;DHT22;33280;52.152;21.052;2022-07-23T00:35:31;23.50;99.20
47540;DHT22;33280;52.152;21.052;2022-07-23T00:37:59;23.50;99.60
47540;DHT22;33280;52.152;21.052;2022-07-23T00:40:27;23.50;99.80
47540;DHT22;33280;52.152;21.052;2022-07-23T00:42:54;23.40;99.90
47540;DHT22;33280;52.152;21.052;2022-07-23T00:45:21;23.40;99.90
47540;DHT22;33280;52.152;21.052;2022-07-23T00:47:49;23.30;99.90
47540;DHT22;33280;52.152;21.052;2022-07-23T00:50:16;23.30;99.90
47540;DHT22;33280;52.152;21.052;2022-07-23T00:52:43;23.20;99.90
47540;DHT22;33280;52.152;21.052;2022-07-23T00:55:11;23.20;99.90
47540;DHT22;33280;52.152;21.052;2022-07-23T00:57:39;23.20;99.90
47540;DHT22;33280;52.152;21.052;2022-07-23T01:00:09;23.20;99.90
47540;DHT22;33280;52.152;21.052;2022-07-23T01:02:37;23.10;99.90
47540;DHT22;33280;52.152;21.052;2022-07-23T01:05:05;23.00;99.90
47540;DHT22;33280;52.152;21.052;2022-07-23T01:07:33;23.00;99.90
47540;DHT22;33280;52.152;21.052;2022-07-23T01:10:00;23.00;99.90
47540;DHT22;33280;52.152;21.052;2022-07-23T01:12:27;22.90;99.90
47540;DHT22;33280;52.152;21.052;2022-07-23T01:14:58;22.80;99.90
47540;DHT22;33280;52.152;21.052;2022-07-23T01:17:26;22.80;99.90
47540;DHT22;33280;52.152;21.052;2022-07-23T01:19:53;22.70;99.90
47540;DHT22;33280;52.152;21.052;2022-07-23T01:22:20;22.60;99.90
47540;DHT22;33280;52.152;21.052;2022-07-23T01:24:47;22.60;99.90
47540;DHT22;33280;52.152;21.052;2022-07-23T01:27:14;22.50;99.90
47540;DHT22;33280;52.152;21.052;2022-07-23T01:29:41;22.50;99.90
47540;DHT22;33280;52.152;21.052;2022-07-23T01:32:08;22.50;99.90
47540;DHT22;33280;52.152;21.052;2022-07-23T01:34:35;22.40;99.90
47540;DHT22;33280;52.152;21.052;2022-07-23T01:37:02;22.30;99.90
47540;DHT22;33280;52.152;21.052;2022-07-23T01:39:28;22.30;99.90
47540;DHT22;33280;52.152;21.052;2022-07-23T01:41:55;22.30;99.90
47540;DHT22;33280;52.152;21.052;2022-07-23T01:44:22;22.30;99.90
47540;DHT22;33280;52.152;21.052;2022-07-23T01:46:50;22.20;99.90
47540;DHT22;33280;52.152;21.052;2022-07-23T01:49:17;22.20;99.90
47540;DHT22;33280;52.152;21.052;2022-07-23T01:51:44;22.20;99.90
47540;DHT22;33280;52.152;21.052;2022-07-23T01:54:31;22.10;99.90
47540;DHT22;33280;52.152;21.052;2022-07-23T01:56:58;21.90;99.90
47540;DHT22;33280;52.152;21.052;2022-07-23T01:59:25;21.80;99.90
47540;DHT22;33280;52.152;21.052;2022-07-23T02:01:52;21.80;99.90
47540;DHT22;33280;52.152;21.052;2022-07-23T02:04:20;21.80;99.90
47540;DHT22;33280;52.152;21.052;2022-07-23T02:06:47;21.80;99.90
47540;DHT22;33280;52.152;21.052;2022-07-23T02:09:14;21.80;99.90
47540;DHT22;33280;52.152;21.052;2022-07-23T02:11:41;21.70;99.90
47540;DHT22;33280;52.152;21.052;2022-07-23T02:14:08;21.70;99.90
47540;DHT22;33280;52.152;21.052;2022-07-23T02:16:35;21.70;99.90
47540;DHT22;33280;52.152;21.052;2022-07-23T02:19:03;21.70;99.90
47540;DHT22;33280;52.152;21.052;2022-07-23T02:21:30;21.70;99.90
47540;DHT22;33280;52.152;21.052;2022-07-23T02:23:57;21.70;99.90
47540;DHT22;33280;52.152;21.052;2022-07-23T02:26:24;21.70;99.90
47540;DHT22;33280;52.152;21.052;2022-07-23T02:28:51;21.60;99.90
47540;DHT22;33280;52.152;21.052;2022-07-23T02:31:20;21.60;99.90
47540;DHT22;33280;52.152;21.052;2022-07-23T02:33:47;21.60;99.90
47540;DHT22;33280;52.152;21.052;2022-07-23T02:36:14;21.50;99.90
47540;DHT22;33280;52.152;21.052;2022-07-23T02:38:40;21.50;99.90
47540;DHT22;33280;52.152;21.052;2022-07-23T02:41:07;21.50;99.90
47540;DHT22;33280;52.152;21.052;2022-07-23T02:43:35;21.50;99.90
47540;DHT22;33280;52.152;21.052;2022-07-23T02:46:02;21.40;99.90
47540;DHT22;33280;52.152;21.052;2022-07-23T02:48:30;21.40;99.90
47540;DHT22;33280;52.152;21.052;2022-07-23T02:51:00;21.30;99.90
47540;DHT22;33280;52.152;21.052;2022-07-23T02:53:27;21.40;99.90
47540;DHT22;33280;52.152;21.052;2022-07-23T02:55:54;21.30;99.90
47540;DHT22;33280;52.152;21.052;2022-07-23T02:58:20;21.30;99.90
47540;DHT22;33280;52.152;21.052;2022-07-23T03:00:48;21.20;99.90
47540;DHT22;33280;52.152;21.052;2022-07-23T03:03:15;21.30;99.90
47540;DHT22;33280;52.152;21.052;2022-07-23T03:05:41;21.20;99.90
47540;DHT22;33280;52.152;21.052;2022-07-23T03:08:08;21.10;99.90
47540;DHT22;33280;52.152;21.052;2022-07-23T03:10:35;21.20;99.90
47540;DHT22;33280;52.152;21.052;2022-07-23T03:13:02;21.10;99.90
47540;DHT22;33280;52.152;21.052;2022-07-23T03:15:29;21.10;99.90
47540;DHT22;33280;52.152;21.052;2022-07-23T03:17:56;21.10;99.90
47540;DHT22;33280;52.152;21.052;2022-07-23T03:20:23;21.10;99.90
47540;DHT22;33280;52.152;21.052;2022-07-23T03:22:50;21.10;99.90
47540;DHT22;33280;52.152;21.052;2022-07-23T03:25:16;21.10;99.90
47540;DHT22;33280;52.152;21.052;2022-07-23T03:27:43;21.10;99.90
47540;DHT22;33280;52.152;21.052;2022-07-23T03:30:12;21.10;99.90
47540;DHT22;33280;52.152;21.052;2022-07-23T03:32:39;21.10;99.90
47540;DHT22;33280;52.152;21.052;2022-07-23T03:35:07;21.10;99.90
47540;DHT22;33280;52.152;21.052;2022-07-23T03:37:34;21.00;99.90
47540;DHT22;33280;52.152;21.052;2022-07-23T03:40:02;21.10;99.90
47540;DHT22;33280;52.152;21.052;2022-07-23T03:42:29;21.00;99.90
47540;DHT22;33280;52.152;21.052;2022-07-23T03:44:56;21.10;99.90
47540;DHT22;33280;52.152;21.052;2022-07-23T03:47:22;21.10;99.90
47540;DHT22;33280;52.152;21.052;2022-07-23T03:49:49;21.00;99.90
47540;DHT22;33280;52.152;21.052;2022-07-23T03:52:16;21.10;99.90
47540;DHT22;33280;52.152;21.052;2022-07-23T03:54:43;21.10;99.90
47540;DHT22;33280;52.152;21.052;2022-07-23T03:57:10;21.20;99.90
47540;DHT22;33280;52.152;21.052;2022-07-23T03:59:37;21.20;99.90
47540;DHT22;33280;52.152;21.052;2022-07-23T04:02:04;21.20;99.90
47540;DHT22;33280;52.152;21.052;2022-07-23T04:04:31;21.20;99.90
47540;DHT22;33280;52.152;21.052;2022-07-23T04:06:57;21.10;99.90
47540;DHT22;33280;52.152;21.052;2022-07-23T04:09:24;21.10;99.90
47540;DHT22;33280;52.152;21.052;2022-07-23T04:11:51;21.20;99.90
47540;DHT22;33280;52.152;21.052;2022-07-23T04:14:18;21.20;99.90
47540;DHT22;33280;52.152;21.052;2022-07-23T04:16:45;21.20;99.90
47540;DHT22;33280;52.152;21.052;2022-07-23T04:19:12;21.30;99.90
47540;DHT22;33280;52.152;21.052;2022-07-23T04:21:39;21.20;99.90
47540;DHT22;33280;52.152;21.052;2022-07-23T04:24:06;21.20;99.90
47540;DHT22;33280;52.152;21.052;2022-07-23T04:26:33;21.30;99.90
47540;DHT22;33280;52.152;21.052;2022-07-23T04:28:59;21.30;99.90
47540;DHT22;33280;52.152;21.052;2022-07-23T04:31:27;21.40;99.90
47540;DHT22;33280;52.152;21.052;2022-07-23T04:34:00;21.50;99.90
47540;DHT22;33280;52.152;21.052;2022-07-23T04:36:27;21.60;99.90
47540;DHT22;33280;52.152;21.052;2022-07-23T04:38:54;21.50;99.90
47540;DHT22;33280;52.152;21.052;2022-07-23T04:41:21;21.40;99.90
47540;DHT22;33280;52.152;21.052;2022-07-23T04:43:48;21.50;99.90
47540;DHT22;33280;52.152;21.052;2022-07-23T04:46:15;21.60;99.90
47540;DHT22;33280;52.152;21.052;2022-07-23T04:48:42;21.70;99.90
47540;DHT22;33280;52.152;21.052;2022-07-23T04:51:10;21.70;99.90
47540;DHT22;33280;52.152;21.052;2022-07-23T04:53:37;21.80;99.90
47540;DHT22;33280;52.152;21.052;2022-07-23T04:56:05;21.80;99.90
47540;DHT22;33280;52.152;21.052;2022-07-23T04:58:32;21.80;99.90
47540;DHT22;33280;52.152;21.052;2022-07-23T05:00:59;21.90;99.90
47540;DHT22;33280;52.152;21.052;2022-07-23T05:03:26;22.00;99.90
47540;DHT22;33280;52.152;21.052;2022-07-23T05:05:53;22.10;99.90
47540;DHT22;33280;52.152;21.052;2022-07-23T05:08:19;22.10;99.90
47540;DHT22;33280;52.152;21.052;2022-07-23T05:10:47;22.30;99.90
47540;DHT22;33280;52.152;21.052;2022-07-23T05:13:15;22.30;99.90
47540;DHT22;33280;52.152;21.052;2022-07-23T05:15:43;22.50;99.90
47540;DHT22;33280;52.152;21.052;2022-07-23T05:18:10;22.60;99.90
47540;DHT22;33280;52.152;21.052;2022-07-23T05:20:37;22.60;99.90
47540;DHT22;33280;52.152;21.052;2022-07-23T05:23:04;22.70;99.90
47540;DHT22;33280;52.152;21.052;2022-07-23T05:25:31;22.80;99.90
47540;DHT22;33280;52.152;21.052;2022-07-23T05:27:58;22.90;99.90
47540;DHT22;33280;52.152;21.052;2022-07-23T05:30:25;23.10;99.90
47540;DHT22;33280;52.152;21.052;2022-07-23T05:32:52;23.10;99.90
47540;DHT22;33280;52.152;21.052;2022-07-23T05:35:18;23.20;99.90
47540;DHT22;33280;52.152;21.052;2022-07-23T05:37:45;23.30;99.90
47540;DHT22;33280;52.152;21.052;2022-07-23T05:40:12;23.50;99.90
47540;DHT22;33280;52.152;21.052;2022-07-23T05:42:40;23.50;99.90
47540;DHT22;33280;52.152;21.052;2022-07-23T05:45:09;23.60;99.90
47540;DHT22;33280;52.152;21.052;2022-07-23T05:47:47;23.70;99.90
47540;DHT22;33280;52.152;21.052;2022-07-23T05:50:15;23.90;99.90
47540;DHT22;33280;52.152;21.052;2022-07-23T05:52:43;23.90;99.90
47540;DHT22;33280;52.152;21.052;2022-07-23T05:55:10;23.90;99.90
47540;DHT22;33280;52.152;21.052;2022-07-23T05:57:40;24.10;99.90
47540;DHT22;33280;52.152;21.052;2022-07-23T06:00:08;24.20;99.90
47540;DHT22;33280;52.152;21.052;2022-07-23T06:02:37;24.30;99.90
47540;DHT22;33280;52.152;21.052;2022-07-23T06:05:05;24.30;99.90
47540;DHT22;33280;52.152;21.052;2022-07-23T06:07:35;24.40;99.90
47540;DHT22;33280;52.152;21.052;2022-07-23T06:10:02;24.40;99.90
47540;DHT22;33280;52.152;21.052;2022-07-23T06:12:29;24.50;99.90
47540;DHT22;33280;52.152;21.052;2022-07-23T06:14:56;24.60;99.90
47540;DHT22;33280;52.152;21.052;2022-07-23T06:17:23;24.80;99.90
47540;DHT22;33280;52.152;21.052;2022-07-23T06:19:51;24.90;99.90
47540;DHT22;33280;52.152;21.052;2022-07-23T06:22:18;25.00;99.90
47540;DHT22;33280;52.152;21.052;2022-07-23T06:24:45;25.10;99.90
47540;DHT22;33280;52.152;21.052;2022-07-23T06:27:12;25.20;99.90
47540;DHT22;33280;52.152;21.052;2022-07-23T06:29:39;25.40;99.90
47540;DHT22;33280;52.152;21.052;2022-07-23T06:32:07;25.40;99.90
47540;DHT22;33280;52.152;21.052;2022-07-23T06:34:34;25.60;99.90
47540;DHT22;33280;52.152;21.052;2022-07-23T06:37:01;25.60;99.90
47540;DHT22;33280;52.152;21.052;2022-07-23T06:39:28;25.70;99.90
47540;DHT22;33280;52.152;21.052;2022-07-23T06:41:55;25.80;99.90
47540;DHT22;33280;52.152;21.052;2022-07-23T06:44:26;25.90;99.90
47540;DHT22;33280;52.152;21.052;2022-07-23T06:46:53;26.10;99.90
47540;DHT22;33280;52.152;21.052;2022-07-23T06:49:20;26.30;99.90
47540;DHT22;33280;52.152;21.052;2022-07-23T06:51:47;26.50;99.90
47540;DHT22;33280;52.152;21.052;2022-07-23T06:54:14;26.60;99.90
47540;DHT22;33280;52.152;21.052;2022-07-23T06:56:41;26.70;99.90
47540;DHT22;33280;52.152;21.052;2022-07-23T06:59:10;26.70;99.90
47540;DHT22;33280;52.152;21.052;2022-07-23T07:01:37;26.60;99.90
47540;DHT22;33280;52.152;21.052;2022-07-23T07:04:04;26.70;99.90
47540;DHT22;33280;52.152;21.052;2022-07-23T07:06:31;26.70;99.90
47540;DHT22;33280;52.152;21.052;2022-07-23T07:08:58;26.90;99.90
47540;DHT22;33280;52.152;21.052;2022-07-23T07:11:25;26.80;99.90
47540;DHT22;33280;52.152;21.052;2022-07-23T07:13:52;26.90;99.90
47540;DHT22;33280;52.152;21.052;2022-07-23T07:16:19;26.90;99.90
47540;DHT22;33280;52.152;21.052;2022-07-23T07:18:46;26.90;99.90
47540;DHT22;33280;52.152;21.052;2022-07-23T07:21:13;26.90;99.90
47540;DHT22;33280;52.152;21.052;2022-07-23T07:23:40;27.00;99.90
47540;DHT22;33280;52.152;21.052;2022-07-23T07:26:07;27.10;99.90
47540;DHT22;33280;52.152;21.052;2022-07-23T07:28:34;27.00;99.90
47540;DHT22;33280;52.152;21.052;2022-07-23T07:31:01;27.10;99.90
47540;DHT22;33280;52.152;21.052;2022-07-23T07:33:29;27.30;99.90
47540;DHT22;33280;52.152;21.052;2022-07-23T07:35:56;27.40;99.90
47540;DHT22;33280;52.152;21.052;2022-07-23T07:38:23;27.40;99.90
47540;DHT22;33280;52.152;21.052;2022-07-23T07:40:50;27.60;99.90
47540;DHT22;33280;52.152;21.052;2022-07-23T07:43:16;27.70;99.90
47540;DHT22;33280;52.152;21.052;2022-07-23T07:45:43;27.60;99.90
47540;DHT22;33280;52.152;21.052;2022-07-23T07:48:10;27.70;99.90
47540;DHT22;33280;52.152;21.052;2022-07-23T07:50:37;27.80;99.90
47540;DHT22;33280;52.152;21.052;2022-07-23T07:53:04;27.70;99.90
47540;DHT22;33280;52.152;21.052;2022-07-23T07:55:32;27.70;99.90
47540;DHT22;33280;52.152;21.052;2022-07-23T07:57:58;27.60;99.90
47540;DHT22;33280;52.152;21.052;2022-07-23T08:00:28;27.60;99.90
47540;DHT22;33280;52.152;21.052;2022-07-23T08:02:55;27.70;99.90
47540;DHT22;33280;52.152;21.052;2022-07-23T08:05:26;27.80;99.90
47540;DHT22;33280;52.152;21.052;2022-07-23T08:07:58;27.90;99.90
47540;DHT22;33280;52.152;21.052;2022-07-23T08:10:27;28.00;99.90
47540;DHT22;33280;52.152;21.052;2022-07-23T08:12:55;28.10;99.90
47540;DHT22;33280;52.152;21.052;2022-07-23T08:15:26;28.10;99.90
47540;DHT22;33280;52.152;21.052;2022-07-23T08:17:54;28.20;99.90
47540;DHT22;33280;52.152;21.052;2022-07-23T08:20:23;28.10;99.90
47540;DHT22;33280;52.152;21.052;2022-07-23T08:22:56;28.10;99.90
47540;DHT22;33280;52.152;21.052;2022-07-23T08:25:28;28.40;99.90
47540;DHT22;33280;52.152;21.052;2022-07-23T08:27:57;29.20;99.90
47540;DHT22;33280;52.152;21.052;2022-07-23T08:30:24;30.00;99.90
47540;DHT22;33280;52.152;21.052;2022-07-23T08:32:56;30.60;99.90
47540;DHT22;33280;52.152;21.052;2022-07-23T08:35:32;31.30;99.90
47540;DHT22;33280;52.152;21.052;2022-07-23T08:38:00;31.60;98.00
47540;DHT22;33280;52.152;21.052;2022-07-23T08:40:33;31.70;97.20
47540;DHT22;33280;52.152;21.052;2022-07-23T08:43:03;31.00;97.10
47540;DHT22;33280;52.152;21.052;2022-07-23T08:45:36;31.50;96.50
47540;DHT22;33280;52.152;21.052;2022-07-23T08:48:06;31.00;96.60
47540;DHT22;33280;52.152;21.052;2022-07-23T08:50:35;31.50;97.00
47540;DHT22;33280;52.152;21.052;2022-07-23T08:53:07;32.00;95.20
47540;DHT22;33280;52.152;21.052;2022-07-23T08:55:35;32.70;93.50
47540;DHT22;33280;52.152;21.052;2022-07-23T08:58:02;32.40;93.00
47540;DHT22;33280;52.152;21.052;2022-07-23T09:00:30;32.40;92.70
47540;DHT22;33280;52.152;21.052;2022-07-23T09:02:57;32.40;91.80
47540;DHT22;33280;52.152;21.052;2022-07-23T09:05:24;32.30;92.30
47540;DHT22;33280;52.152;21.052;2022-07-23T09:08:16;32.60;92.20
47540;DHT22;33280;52.152;21.052;2022-07-23T09:16:01;32.70;91.00
47540;DHT22;33280;52.152;21.052;2022-07-23T09:31:44;33.70;87.80
47540;DHT22;33280;52.152;21.052;2022-07-23T09:36:44;34.00;79.70
47540;DHT22;33280;52.152;21.052;2022-07-23T09:39:12;33.60;79.40
47540;DHT22;33280;52.152;21.052;2022-07-23T09:41:45;33.60;79.30
47540;DHT22;33280;52.152;21.052;2022-07-23T09:44:17;33.00;79.80
47540;DHT22;33280;52.152;21.052;2022-07-23T09:46:49;32.80;77.80
47540;DHT22;33280;52.152;21.052;2022-07-23T09:49:21;32.60;75.00
47540;DHT22;33280;52.152;21.052;2022-07-23T09:51:56;32.20;78.40
47540;DHT22;33280;52.152;21.052;2022-07-23T09:54:25;33.00;77.80
47540;DHT22;33280;52.152;21.052;2022-07-23T09:56:54;33.40;73.70
47540;DHT22;33280;52.152;21.052;2022-07-23T09:59:26;33.60;71.40
47540;DHT22;33280;52.152;21.052;2022-07-23T10:01:55;33.40;71.40
47540;DHT22;33280;52.152;21.052;2022-07-23T10:04:24;33.00;74.30
47540;DHT22;33280;52.152;21.052;2022-07-23T10:06:53;33.20;71.70
47540;DHT22;33280;52.152;21.052;2022-07-23T10:09:34;33.00;74.20
47540;DHT22;33280;52.152;21.052;2022-07-23T10:12:03;33.20;75.50
47540;DHT22;33280;52.152;21.052;2022-07-23T10:14:44;33.60;74.80
47540;DHT22;33280;52.152;21.052;2022-07-23T10:17:12;34.10;73.40
47540;DHT22;33280;52.152;21.052;2022-07-23T10:19:39;34.90;72.50
47540;DHT22;33280;52.152;21.052;2022-07-23T10:22:09;35.10;71.00
47540;DHT22;33280;52.152;21.052;2022-07-23T10:24:52;35.30;68.70
47540;DHT22;33280;52.152;21.052;2022-07-23T10:27:45;34.40;70.60
47540;DHT22;33280;52.152;21.052;2022-07-23T10:36:16;35.60;68.60
47540;DHT22;33280;52.152;21.052;2022-07-23T10:41:37;35.90;66.00
47540;DHT22;33280;52.152;21.052;2022-07-23T10:44:14;35.60;67.00
47540;DHT22;33280;52.152;21.052;2022-07-23T10:49:31;36.30;64.50
47540;DHT22;33280;52.152;21.052;2022-07-23T10:54:45;36.40;64.50
47540;DHT22;33280;52.152;21.052;2022-07-23T10:57:14;36.60;63.90
47540;DHT22;33280;52.152;21.052;2022-07-23T11:02:29;35.80;63.70
47540;DHT22;33280;52.152;21.052;2022-07-23T11:05:17;36.10;62.90
47540;DHT22;33280;52.152;21.052;2022-07-23T11:08:17;36.70;61.20
47540;DHT22;33280;52.152;21.052;2022-07-23T11:10:47;35.70;61.70
47540;DHT22;33280;52.152;21.052;2022-07-23T11:16:04;36.20;60.30
47540;DHT22;33280;52.152;21.052;2022-07-23T11:32:18;37.20;57.30
47540;DHT22;33280;52.152;21.052;2022-07-23T11:34:47;37.20;56.40
47540;DHT22;33280;52.152;21.052;2022-07-23T11:37:39;37.40;56.60
47540;DHT22;33280;52.152;21.052;2022-07-23T11:40:08;37.90;56.70
47540;DHT22;33280;52.152;21.052;2022-07-23T11:42:39;38.10;55.60
47540;DHT22;33280;52.152;21.052;2022-07-23T11:45:17;37.90;56.40
47540;DHT22;33280;52.152;21.052;2022-07-23T11:47:44;38.30;55.40
47540;DHT22;33280;52.152;21.052;2022-07-23T11:50:10;38.70;55.30
47540;DHT22;33280;52.152;21.052;2022-07-23T11:52:38;38.70;54.40
47540;DHT22;33280;52.152;21.052;2022-07-23T11:55:10;39.20;53.80
47540;DHT22;33280;52.152;21.052;2022-07-23T11:57:39;39.60;53.10
47540;DHT22;33280;52.152;21.052;2022-07-23T12:00:16;39.30;51.70
47540;DHT22;33280;52.152;21.052;2022-07-23T12:02:50;38.80;53.10
47540;DHT22;33280;52.152;21.052;2022-07-23T12:05:25;39.00;53.20
47540;DHT22;33280;52.152;21.052;2022-07-23T12:07:54;39.00;52.80
47540;DHT22;33280;52.152;21.052;2022-07-23T12:10:27;39.10;52.20
47540;DHT22;33280;52.152;21.052;2022-07-23T12:12:55;39.10;52.70
47540;DHT22;33280;52.152;21.052;2022-07-23T12:15:41;39.60;52.70
47540;DHT22;33280;52.152;21.052;2022-07-23T12:18:14;40.10;52.40
47540;DHT22;33280;52.152;21.052;2022-07-23T12:20:43;40.70;52.00
47540;DHT22;33280;52.152;21.052;2022-07-23T12:23:14;41.10;51.00
47540;DHT22;33280;52.152;21.052;2022-07-23T12:25:48;41.30;49.80
47540;DHT22;33280;52.152;21.052;2022-07-23T12:28:18;40.80;49.90
47540;DHT22;33280;52.152;21.052;2022-07-23T12:30:53;40.70;49.60
47540;DHT22;33280;52.152;21.052;2022-07-23T12:33:24;40.30;50.20
47540;DHT22;33280;52.152;21.052;2022-07-23T12:35:53;40.00;49.60
47540;DHT22;33280;52.152;21.052;2022-07-23T12:38:21;40.00;51.40
47540;DHT22;33280;52.152;21.052;2022-07-23T12:40:53;40.30;50.00
47540;DHT22;33280;52.152;21.052;2022-07-23T12:43:22;40.50;48.70
47540;DHT22;33280;52.152;21.052;2022-07-23T12:45:53;40.30;48.60
47540;DHT22;33280;52.152;21.052;2022-07-23T12:48:29;40.30;49.30
47540;DHT22;33280;52.152;21.052;2022-07-23T12:53:54;40.70;48.90
47540;DHT22;33280;52.152;21.052;2022-07-23T12:56:30;40.90;48.60
47540;DHT22;33280;52.152;21.052;2022-07-23T13:01:35;41.20;48.10
47540;DHT22;33280;52.152;21.052;2022-07-23T13:04:18;40.80;48.60
47540;DHT22;33280;52.152;21.052;2022-07-23T13:06:53;40.40;48.50
47540;DHT22;33280;52.152;21.052;2022-07-23T13:09:26;39.90;48.50
47540;DHT22;33280;52.152;21.052;2022-07-23T13:11:58;39.50;49.40
47540;DHT22;33280;52.152;21.052;2022-07-23T13:14:28;39.40;50.50
47540;DHT22;33280;52.152;21.052;2022-07-23T13:16:55;39.10;51.00
47540;DHT22;33280;52.152;21.052;2022-07-23T13:19:25;37.80;50.60
47540;DHT22;33280;52.152;21.052;2022-07-23T13:21:53;37.80;51.80
47540;DHT22;33280;52.152;21.052;2022-07-23T13:24:21;37.80;52.00
47540;DHT22;33280;52.152;21.052;2022-07-23T13:26:48;37.90;50.90
47540;DHT22;33280;52.152;21.052;2022-07-23T13:29:18;38.20;51.30
47540;DHT22;33280;52.152;21.052;2022-07-23T13:31:46;38.40;52.30
47540;DHT22;33280;52.152;21.052;2022-07-23T13:34:13;38.10;52.00
47540;DHT22;33280;52.152;21.052;2022-07-23T13:36:40;38.20;51.80
47540;DHT22;33280;52.152;21.052;2022-07-23T13:39:07;37.40;51.70
47540;DHT22;33280;52.152;21.052;2022-07-23T13:41:37;37.40;52.20
47540;DHT22;33280;52.152;21.052;2022-07-23T13:44:04;37.50;53.00
47540;DHT22;33280;52.152;21.052;2022-07-23T13:46:33;37.70;53.10
47540;DHT22;33280;52.152;21.052;2022-07-23T13:49:00;38.10;51.30
47540;DHT22;33280;52.152;21.052;2022-07-23T13:51:28;38.00;52.00
47540;DHT22;33280;52.152;21.052;2022-07-23T13:53:55;37.80;52.00
47540;DHT22;33280;52.152;21.052;2022-07-23T13:56:26;38.00;52.50
47540;DHT22;33280;52.152;21.052;2022-07-23T13:58:53;37.60;52.00
47540;DHT22;33280;52.152;21.052;2022-07-23T14:01:20;37.30;52.50
47540;DHT22;33280;52.152;21.052;2022-07-23T14:03:47;37.20;53.90
47540;DHT22;33280;52.152;21.052;2022-07-23T14:06:14;36.90;54.80
47540;DHT22;33280;52.152;21.052;2022-07-23T14:08:43;36.70;55.40
47540;DHT22;33280;52.152;21.052;2022-07-23T14:11:12;36.50;55.20
47540;DHT22;33280;52.152;21.052;2022-07-23T14:13:39;36.20;55.40
47540;DHT22;33280;52.152;21.052;2022-07-23T14:16:07;35.90;56.40
47540;DHT22;33280;52.152;21.052;2022-07-23T14:18:34;35.70;57.70
47540;DHT22;33280;52.152;21.052;2022-07-23T14:21:02;35.40;58.20
47540;DHT22;33280;52.152;21.052;2022-07-23T14:23:29;35.00;57.30
47540;DHT22;33280;52.152;21.052;2022-07-23T14:25:56;34.70;57.90
47540;DHT22;33280;52.152;21.052;2022-07-23T14:28:24;34.60;58.00
47540;DHT22;33280;52.152;21.052;2022-07-23T14:30:51;34.30;58.90
47540;DHT22;33280;52.152;21.052;2022-07-23T14:33:18;34.10;58.20
47540;DHT22;33280;52.152;21.052;2022-07-23T14:35:47;33.90;58.50
47540;DHT22;33280;52.152;21.052;2022-07-23T14:38:13;33.70;58.70
47540;DHT22;33280;52.152;21.052;2022-07-23T14:40:41;33.30;58.80
47540;DHT22;33280;52.152;21.052;2022-07-23T14:43:08;32.80;59.70
47540;DHT22;33280;52.152;21.052;2022-07-23T14:45:38;31.90;66.00
47540;DHT22;33280;52.152;21.052;2022-07-23T14:48:05;28.50;83.40
47540;DHT22;33280;52.152;21.052;2022-07-23T14:50:34;27.20;90.80
47540;DHT22;33280;52.152;21.052;2022-07-23T14:53:02;26.40;93.70
47540;DHT22;33280;52.152;21.052;2022-07-23T14:55:31;25.50;97.70
47540;DHT22;33280;52.152;21.052;2022-07-23T14:57:59;25.00;99.90
47540;DHT22;33280;52.152;21.052;2022-07-23T15:00:26;24.30;99.90
47540;DHT22;33280;52.152;21.052;2022-07-23T15:02:53;23.80;99.90
47540;DHT22;33280;52.152;21.052;2022-07-23T15:05:22;23.80;99.90
47540;DHT22;33280;52.152;21.052;2022-07-23T15:07:51;23.60;99.90
47540;DHT22;33280;52.152;21.052;2022-07-23T15:10:18;23.20;99.90
47540;DHT22;33280;52.152;21.052;2022-07-23T15:12:48;22.80;99.90
47540;DHT22;33280;52.152;21.052;2022-07-23T15:15:15;22.50;99.90
47540;DHT22;33280;52.152;21.052;2022-07-23T15:17:43;22.50;99.90
47540;DHT22;33280;52.152;21.052;2022-07-23T15:20:10;22.50;99.90
47540;DHT22;33280;52.152;21.052;2022-07-23T15:22:41;22.40;99.90
47540;DHT22;33280;52.152;21.052;2022-07-23T15:25:08;22.20;99.90
47540;DHT22;33280;52.152;21.052;2022-07-23T15:27:38;22.10;99.90
47540;DHT22;33280;52.152;21.052;2022-07-23T15:30:05;22.00;99.90
47540;DHT22;33280;52.152;21.052;2022-07-23T15:32:34;22.10;99.90
47540;DHT22;33280;52.152;21.052;2022-07-23T15:35:01;21.90;99.90
47540;DHT22;33280;52.152;21.052;2022-07-23T15:37:29;21.70;99.90
47540;DHT22;33280;52.152;21.052;2022-07-23T15:39:56;21.60;99.90
47540;DHT22;33280;52.152;21.052;2022-07-23T15:42:23;21.40;99.90
47540;DHT22;33280;52.152;21.052;2022-07-23T15:44:50;21.20;99.90
47540;DHT22;33280;52.152;21.052;2022-07-23T15:47:18;21.00;99.90
47540;DHT22;33280;52.152;21.052;2022-07-23T15:49:45;20.90;99.90
47540;DHT22;33280;52.152;21.052;2022-07-23T15:52:13;20.80;99.90
47540;DHT22;33280;52.152;21.052;2022-07-23T15:54:40;20.70;99.90
47540;DHT22;33280;52.152;21.052;2022-07-23T15:57:07;20.70;99.90
47540;DHT22;33280;52.152;21.052;2022-07-23T15:59:35;20.50;99.90
47540;DHT22;33280;52.152;21.052;2022-07-23T16:02:02;20.40;99.90
47540;DHT22;33280;52.152;21.052;2022-07-23T16:04:29;20.30;99.90
47540;DHT22;33280;52.152;21.052;2022-07-23T16:06:57;20.10;99.90
47540;DHT22;33280;52.152;21.052;2022-07-23T16:09:24;20.00;99.90
47540;DHT22;33280;52.152;21.052;2022-07-23T16:11:51;19.90;99.90
47540;DHT22;33280;52.152;21.052;2022-07-23T16:14:20;19.80;99.90
47540;DHT22;33280;52.152;21.052;2022-07-23T16:16:46;19.60;99.90
47540;DHT22;33280;52.152;21.052;2022-07-23T16:19:13;19.50;99.90
47540;DHT22;33280;52.152;21.052;2022-07-23T16:21:41;19.30;99.90
47540;DHT22;33280;52.152;21.052;2022-07-23T16:24:08;19.30;99.90